createdAt,value
2018-11-11T00:00:42.347Z,21.90
2018-11-11T00:03:11.664Z,25.83
2018-11-11T00:05:40.973Z,22.67
2018-11-11T00:08:10.243Z,23.57
2018-11-11T00:10:39.486Z,21.87
2018-11-11T00:13:08.740Z,21.67
2018-11-11T00:15:38.009Z,23.17
2018-11-11T00:18:07.359Z,20.93
2018-11-11T00:20:36.698Z,22.87
2018-11-11T00:23:05.981Z,21.43
2018-11-11T00:25:35.284Z,23.07
2018-11-11T00:28:04.595Z,23.33
2018-11-11T00:30:33.847Z,22.63
2018-11-11T00:33:03.116Z,20.10
2018-11-11T00:35:32.407Z,20.13
2018-11-11T00:38:01.683Z,23.97
2018-11-11T00:40:31.004Z,22.20
2018-11-11T00:43:00.335Z,21.67
2018-11-11T00:45:29.647Z,24.47
2018-11-11T00:47:58.911Z,19.67
2018-11-11T00:50:28.206Z,19.33
2018-11-11T00:52:57.526Z,18.67
2018-11-11T00:55:31.321Z,21.50
2018-11-11T00:58:00.592Z,20.43
2018-11-11T01:00:29.861Z,19.20
2018-11-11T01:02:59.194Z,21.70
2018-11-11T01:05:28.501Z,22.13
2018-11-11T01:07:57.791Z,20.67
2018-11-11T01:10:27.090Z,19.27
2018-11-11T01:12:56.379Z,21.93
2018-11-11T01:15:25.674Z,18.37
2018-11-11T01:17:54.957Z,20.23
2018-11-11T01:20:24.248Z,20.13
2018-11-11T01:22:53.517Z,17.30
2018-11-11T01:25:22.785Z,21.03
2018-11-11T01:27:52.070Z,18.67
2018-11-11T01:30:21.384Z,18.50
2018-11-11T01:32:50.671Z,19.07
2018-11-11T01:35:19.966Z,20.73
2018-11-11T01:37:49.239Z,19.67
2018-11-11T01:40:18.507Z,20.93
2018-11-11T01:42:47.803Z,17.87
2018-11-11T01:45:18.328Z,22.60
2018-11-11T01:47:48.325Z,19.30
2018-11-11T01:50:17.643Z,21.43
2018-11-11T01:52:46.941Z,20.30
2018-11-11T01:55:16.274Z,22.33
2018-11-11T01:57:45.540Z,21.37
2018-11-11T02:00:17.519Z,17.67
2018-11-11T02:02:47.658Z,21.77
2018-11-11T02:05:17.033Z,19.37
2018-11-11T02:07:47.142Z,22.20
2018-11-11T02:10:16.398Z,18.40
2018-11-11T02:12:46.543Z,19.93
2018-11-11T02:15:16.772Z,20.37
2018-11-11T02:17:47.874Z,19.80
2018-11-11T02:20:18.455Z,23.67
2018-11-11T02:22:48.766Z,22.53
2018-11-11T02:25:18.113Z,21.27
2018-11-11T02:27:47.671Z,23.10
2018-11-11T02:30:19.344Z,23.63
2018-11-11T02:32:48.678Z,23.03
2018-11-11T02:35:18.023Z,21.20
2018-11-11T02:37:47.334Z,21.57
2018-11-11T02:40:17.859Z,19.93
2018-11-11T02:42:47.560Z,25.37
2018-11-11T02:45:18.004Z,18.47
2018-11-11T02:47:47.271Z,22.50
2018-11-11T02:50:17.702Z,22.03
2018-11-11T02:52:47.427Z,21.17
2018-11-11T02:55:17.246Z,20.37
2018-11-11T02:57:47.089Z,21.27
2018-11-11T03:00:20.570Z,19.37
2018-11-11T03:02:50.172Z,19.70
2018-11-11T03:05:20.169Z,22.83
2018-11-11T03:07:49.423Z,19.63
2018-11-11T03:10:19.079Z,23.93
2018-11-11T03:12:50.733Z,21.37
2018-11-11T03:15:20.452Z,26.20
2018-11-11T03:17:49.846Z,21.13
2018-11-11T03:20:19.552Z,20.83
2018-11-11T03:22:48.977Z,21.70
2018-11-11T03:25:18.762Z,21.67
2018-11-11T03:27:48.191Z,21.00
2018-11-11T03:30:18.548Z,20.37
2018-11-11T03:32:48.760Z,22.13
2018-11-11T03:35:18.074Z,21.67
2018-11-11T03:37:47.624Z,22.90
2018-11-11T03:40:20.103Z,22.60
2018-11-11T03:42:50.110Z,22.03
2018-11-11T03:45:20.278Z,21.03
2018-11-11T03:47:50.649Z,21.03
2018-11-11T03:50:20.163Z,22.90
2018-11-11T03:52:49.510Z,23.37
2018-11-11T03:55:18.943Z,20.67
2018-11-11T03:57:48.236Z,22.47
2018-11-11T04:00:18.090Z,22.47
2018-11-11T04:02:47.407Z,22.40
2018-11-11T04:05:17.714Z,23.10
2018-11-11T04:07:47.018Z,21.13
2018-11-11T04:10:17.769Z,22.73
2018-11-11T04:12:47.443Z,26.97
2018-11-11T04:15:17.988Z,22.40
2018-11-11T04:17:47.776Z,23.93
2018-11-11T04:20:20.275Z,23.53
2018-11-11T04:22:49.605Z,22.17
2018-11-11T04:25:19.477Z,23.43
2018-11-11T04:27:48.747Z,25.57
2018-11-11T04:30:18.010Z,21.00
2018-11-11T04:32:47.333Z,25.47
2018-11-11T04:35:16.653Z,22.73
2018-11-11T04:37:45.942Z,24.00
2018-11-11T04:40:15.296Z,23.97
2018-11-11T04:42:44.616Z,23.20
2018-11-11T04:45:16.127Z,26.27
2018-11-11T04:47:46.340Z,22.80
2018-11-11T04:50:16.885Z,25.90
2018-11-11T04:52:46.760Z,23.60
2018-11-11T04:55:16.095Z,19.47
2018-11-11T04:57:45.372Z,22.57
2018-11-11T05:00:15.298Z,23.10
2018-11-11T05:02:44.619Z,24.97
2018-11-11T05:05:14.588Z,22.20
2018-11-11T05:07:43.870Z,26.30
2018-11-11T05:10:13.642Z,23.37
2018-11-11T05:12:43.002Z,24.40
2018-11-11T05:15:13.339Z,26.77
2018-11-11T05:17:42.850Z,22.53
2018-11-11T05:20:13.083Z,25.00
2018-11-11T05:22:42.984Z,23.70
2018-11-11T05:25:13.733Z,25.27
2018-11-11T05:27:43.510Z,20.50
2018-11-11T05:30:13.667Z,24.80
2018-11-11T05:32:42.933Z,27.10
2018-11-11T05:35:12.757Z,26.70
2018-11-11T05:37:42.667Z,27.30
2018-11-11T05:40:12.900Z,29.77
2018-11-11T05:42:43.021Z,30.97
2018-11-11T05:45:13.339Z,29.40
2018-11-11T05:47:43.040Z,27.67
2018-11-11T05:50:13.898Z,26.20
2018-11-11T05:52:44.101Z,25.67
2018-11-11T05:55:15.560Z,27.13
2018-11-11T05:57:44.847Z,27.10
2018-11-11T06:00:15.596Z,25.77
2018-11-11T06:02:45.312Z,29.23
2018-11-11T06:05:15.436Z,27.73
2018-11-11T06:07:44.725Z,30.00
2018-11-11T06:10:15.052Z,27.67
2018-11-11T06:12:44.342Z,27.77
2018-11-11T06:15:14.451Z,30.83
2018-11-11T06:17:43.735Z,26.33
2018-11-11T06:20:17.161Z,29.00
2018-11-11T06:22:46.477Z,26.17
2018-11-11T06:25:15.737Z,29.80
2018-11-11T06:27:45.011Z,29.43
2018-11-11T06:30:14.356Z,32.77
2018-11-11T06:32:43.679Z,31.73
2018-11-11T06:35:12.975Z,32.90
2018-11-11T06:37:42.446Z,31.53
2018-11-11T06:40:12.982Z,29.27
2018-11-11T06:42:42.482Z,35.57
2018-11-11T06:45:14.263Z,36.30
2018-11-11T06:51:21.866Z,35.67
2018-11-11T06:53:51.167Z,36.00
2018-11-11T06:56:20.463Z,31.17
2018-11-11T06:58:49.803Z,31.13
2018-11-11T07:01:19.128Z,35.17
2018-11-11T07:03:58.569Z,33.53
2018-11-11T07:06:28.416Z,38.37
2018-11-11T07:08:57.685Z,36.07
2018-11-11T07:11:26.935Z,36.80
2018-11-11T07:13:56.249Z,30.13
2018-11-11T07:16:26.063Z,39.40
2018-11-11T07:18:55.744Z,39.80
2018-11-11T07:21:25.051Z,42.37
2018-11-11T07:23:54.374Z,35.50
2018-11-11T07:26:23.669Z,37.80
2018-11-11T07:28:52.934Z,48.10
2018-11-11T07:31:22.207Z,37.20
2018-11-11T07:33:51.559Z,35.03
2018-11-11T07:36:20.846Z,37.40
2018-11-11T07:38:50.111Z,32.77
2018-11-11T07:41:19.371Z,39.37
2018-11-11T07:43:48.716Z,39.67
2018-11-11T07:46:18.078Z,39.50
2018-11-11T07:48:47.813Z,41.00
2018-11-11T07:51:17.110Z,39.83
2018-11-11T07:53:46.374Z,38.37
2018-11-11T07:56:15.661Z,47.27
2018-11-11T07:58:44.966Z,41.17
2018-11-11T08:01:14.253Z,44.30
2018-11-11T08:03:43.559Z,37.67
2018-11-11T08:06:13.220Z,38.17
2018-11-11T08:08:42.539Z,38.53
2018-11-11T08:11:22.760Z,38.70
2018-11-11T08:13:52.059Z,42.73
2018-11-11T08:16:21.344Z,41.43
2018-11-11T08:18:51.624Z,41.20
2018-11-11T08:21:21.610Z,38.00
2018-11-11T08:23:52.034Z,74.90
2018-11-11T08:26:21.811Z,51.40
2018-11-11T08:28:51.877Z,44.17
2018-11-11T08:31:21.796Z,43.87
2018-11-11T08:33:51.173Z,58.00
2018-11-11T08:36:22.295Z,59.13
2018-11-11T08:38:52.069Z,56.83
2018-11-11T08:41:21.426Z,48.97
2018-11-11T08:43:50.674Z,54.57
2018-11-11T08:46:19.972Z,49.23
2018-11-11T08:48:49.297Z,49.30
2018-11-11T08:51:18.688Z,52.07
2018-11-11T08:53:47.967Z,57.57
2018-11-11T08:56:17.286Z,50.73
2018-11-11T08:58:46.576Z,54.87
2018-11-11T09:01:15.926Z,47.40
2018-11-11T09:03:45.187Z,48.60
2018-11-11T09:06:14.502Z,51.77
2018-11-11T09:08:43.847Z,43.10
2018-11-11T09:11:13.135Z,50.20
2018-11-11T09:13:42.530Z,42.50
2018-11-11T09:16:11.867Z,43.13
2018-11-11T09:18:41.247Z,43.17
2018-11-11T09:21:10.626Z,45.87
2018-11-11T09:23:39.964Z,39.07
2018-11-11T09:26:09.311Z,43.30
2018-11-11T09:28:38.690Z,44.27
2018-11-11T09:31:08.089Z,41.97
2018-11-11T09:33:37.627Z,39.47
2018-11-11T09:36:08.415Z,39.90
2018-11-11T09:38:38.155Z,45.50
2018-11-11T09:41:08.835Z,39.43
2018-11-11T09:43:38.693Z,38.10
2018-11-11T09:46:08.348Z,35.07
2018-11-11T09:48:38.213Z,40.33
2018-11-11T09:51:07.920Z,41.93
2018-11-11T09:53:37.892Z,38.00
2018-11-11T09:56:07.804Z,41.70
2018-11-11T09:58:38.115Z,44.33
2018-11-11T10:01:08.124Z,36.17
2018-11-11T10:03:42.855Z,36.87
2018-11-11T10:11:16.391Z,35.80
2018-11-11T10:13:54.343Z,53.53
2018-11-11T10:17:29.715Z,40.33
2018-11-11T10:20:05.995Z,36.87
2018-11-11T10:24:44.291Z,38.90
2018-11-11T10:27:24.793Z,37.27
2018-11-11T10:30:10.646Z,36.97
2018-11-11T10:33:53.283Z,37.70
2018-11-11T10:36:28.915Z,38.93
2018-11-11T10:39:03.363Z,37.37
2018-11-11T10:42:36.953Z,35.37
2018-11-11T10:45:12.618Z,42.03
2018-11-11T10:47:46.899Z,41.20
2018-11-11T10:50:21.001Z,41.30
2018-11-11T10:52:51.066Z,36.63
2018-11-11T10:55:21.214Z,36.63
2018-11-11T10:57:51.266Z,41.37
2018-11-11T11:00:26.257Z,37.57
2018-11-11T11:02:57.575Z,34.40
2018-11-11T11:05:28.557Z,37.30
2018-11-11T11:07:58.628Z,33.27
2018-11-11T11:10:28.747Z,33.37
2018-11-11T11:12:58.802Z,35.47
2018-11-11T11:15:29.615Z,35.27
2018-11-11T11:17:59.687Z,33.60
2018-11-11T11:20:29.993Z,38.43
2018-11-11T11:23:00.142Z,35.93
2018-11-11T11:25:30.235Z,37.03
2018-11-11T11:28:00.287Z,31.90
2018-11-11T11:30:30.872Z,57.33
2018-11-11T11:33:00.940Z,64.00
2018-11-11T11:35:31.303Z,64.63
2018-11-11T11:38:01.642Z,59.20
2018-11-11T11:40:32.919Z,66.20
2018-11-11T11:43:03.186Z,59.83
2018-11-11T11:45:33.448Z,71.93
2018-11-11T11:48:03.522Z,62.57
2018-11-11T11:50:33.742Z,65.77
2018-11-11T11:53:03.883Z,70.00
2018-11-11T11:55:33.847Z,60.80
2018-11-11T11:58:15.669Z,54.83
2018-11-11T12:00:46.036Z,56.77
2018-11-11T12:03:16.506Z,54.70
2018-11-11T12:05:47.274Z,56.90
2018-11-11T12:08:19.528Z,54.47
2018-11-11T12:10:49.747Z,53.37
2018-11-11T12:13:20.139Z,62.10
2018-11-11T12:15:51.161Z,55.40
2018-11-11T12:18:21.233Z,56.10
2018-11-11T12:20:51.287Z,53.57
2018-11-11T12:23:21.470Z,51.00
2018-11-11T12:25:51.491Z,55.97
2018-11-11T12:28:21.538Z,53.97
2018-11-11T12:30:51.667Z,49.13
2018-11-11T12:33:21.687Z,51.83
2018-11-11T12:35:51.734Z,47.10
2018-11-11T12:38:21.756Z,48.60
2018-11-11T12:40:51.815Z,49.73
2018-11-11T12:43:21.887Z,47.60
2018-11-11T12:45:51.924Z,46.10
2018-11-11T12:48:22.023Z,48.33
2018-11-11T12:50:52.075Z,42.10
2018-11-11T12:53:22.169Z,46.33
2018-11-11T12:55:52.356Z,44.30
2018-11-11T12:58:22.429Z,40.83
2018-11-11T13:00:52.511Z,41.47
2018-11-11T13:03:22.588Z,41.50
2018-11-11T13:05:52.688Z,40.47
2018-11-11T13:08:22.870Z,41.10
2018-11-11T13:10:52.905Z,38.40
2018-11-11T13:13:22.959Z,40.67
2018-11-11T13:15:52.960Z,35.47
2018-11-11T13:18:22.987Z,33.73
2018-11-11T13:20:53.681Z,37.27
2018-11-11T13:23:23.682Z,37.83
2018-11-11T13:25:53.669Z,35.40
2018-11-11T13:28:24.681Z,37.87
2018-11-11T13:30:54.697Z,38.70
2018-11-11T13:33:24.661Z,38.83
2018-11-11T13:35:54.607Z,38.33
2018-11-11T13:38:24.519Z,33.00
2018-11-11T13:40:54.458Z,37.73
2018-11-11T13:43:24.503Z,40.83
2018-11-11T13:45:54.418Z,38.50
2018-11-11T13:48:24.446Z,34.97
2018-11-11T13:50:54.195Z,34.50
2018-11-11T13:53:24.220Z,36.47
2018-11-11T13:55:55.489Z,35.20
2018-11-11T13:58:27.119Z,39.37
2018-11-11T14:00:57.731Z,36.90
2018-11-11T14:03:27.801Z,38.97
2018-11-11T14:05:58.472Z,39.07
2018-11-11T14:08:29.677Z,36.83
2018-11-11T14:11:00.631Z,36.73
2018-11-11T14:13:30.723Z,34.83
2018-11-11T14:16:00.811Z,36.70
2018-11-11T14:18:30.905Z,37.07
2018-11-11T14:21:01.016Z,33.07
2018-11-11T14:23:31.100Z,35.90
2018-11-11T14:26:01.278Z,31.27
2018-11-11T14:28:31.304Z,30.37
2018-11-11T14:31:01.424Z,31.37
2018-11-11T14:33:31.523Z,34.17
2018-11-11T14:36:01.724Z,30.27
2018-11-11T14:38:31.911Z,31.97
2018-11-11T14:41:01.998Z,26.27
2018-11-11T14:43:32.048Z,30.07
2018-11-11T14:46:02.286Z,28.93
2018-11-11T14:48:32.324Z,34.00
2018-11-11T14:51:02.439Z,29.77
2018-11-11T14:53:32.531Z,28.23
2018-11-11T14:56:02.624Z,29.50
2018-11-11T14:58:32.762Z,28.30
2018-11-11T15:01:02.847Z,29.37
2018-11-11T15:03:32.975Z,28.13
2018-11-11T15:06:03.092Z,29.93
2018-11-11T15:08:33.151Z,32.33
2018-11-11T15:11:03.265Z,33.37
2018-11-11T15:13:34.303Z,31.30
2018-11-11T15:16:04.398Z,33.60
2018-11-11T15:18:35.078Z,30.77
2018-11-11T15:21:05.353Z,33.03
2018-11-11T15:23:35.478Z,33.23
2018-11-11T15:26:06.123Z,31.23
2018-11-11T15:28:36.291Z,33.20
2018-11-11T15:31:06.784Z,32.87
2018-11-11T15:33:37.031Z,32.33
2018-11-11T15:36:07.588Z,29.83
2018-11-11T15:38:37.651Z,30.87
2018-11-11T15:41:07.830Z,29.77
2018-11-11T15:43:37.913Z,29.90
2018-11-11T15:46:08.051Z,31.17
2018-11-11T15:48:38.207Z,28.40
2018-11-11T15:51:07.832Z,33.23
2018-11-11T15:53:37.878Z,32.57
2018-11-11T15:56:07.971Z,31.07
2018-11-11T15:58:38.595Z,31.93
2018-11-11T16:01:08.677Z,31.80
2018-11-11T16:03:38.877Z,30.63
2018-11-11T16:06:09.014Z,34.10
2018-11-11T16:08:39.128Z,34.90
2018-11-11T16:11:09.260Z,31.13
2018-11-11T16:13:39.399Z,31.07
2018-11-11T16:16:09.534Z,30.03
2018-11-11T16:18:39.707Z,30.07
2018-11-11T16:21:09.756Z,31.07
2018-11-11T16:23:39.907Z,32.00
2018-11-11T16:26:10.071Z,30.90
2018-11-11T16:28:40.163Z,36.73
2018-11-11T16:31:10.307Z,34.77
2018-11-11T16:33:40.440Z,32.50
2018-11-11T16:36:11.024Z,35.37
2018-11-11T16:38:41.135Z,33.90
2018-11-11T16:41:12.456Z,37.37
2018-11-11T16:43:42.372Z,34.70
2018-11-11T16:46:12.488Z,31.97
2018-11-11T16:48:42.610Z,36.90
2018-11-11T16:51:12.746Z,35.80
2018-11-11T16:53:43.859Z,41.67
2018-11-11T16:56:13.967Z,36.17
2018-11-11T16:58:44.059Z,34.00
2018-11-11T17:01:14.167Z,32.77
2018-11-11T17:03:44.369Z,36.53
2018-11-11T17:06:14.492Z,36.53
2018-11-11T17:08:44.590Z,35.30
2018-11-11T17:11:14.727Z,34.30
2018-11-11T17:13:45.837Z,37.20
2018-11-11T17:16:15.934Z,37.90
2018-11-11T17:18:46.022Z,36.77
2018-11-11T17:21:17.177Z,40.47
2018-11-11T17:23:47.277Z,34.77
2018-11-11T17:26:18.061Z,36.13
2018-11-11T17:28:53.975Z,33.30
2018-11-11T17:31:25.711Z,39.23
2018-11-11T17:33:55.813Z,34.43
2018-11-11T17:36:25.952Z,34.67
2018-11-11T17:38:56.729Z,31.67
2018-11-11T17:41:26.865Z,36.27
2018-11-11T17:43:56.989Z,34.63
2018-11-11T17:46:27.134Z,33.50
2018-11-11T17:48:57.249Z,32.33
2018-11-11T17:51:27.420Z,34.60
2018-11-11T17:53:58.432Z,32.67
2018-11-11T17:56:29.010Z,34.30
2018-11-11T17:59:00.060Z,33.30
2018-11-11T18:01:30.222Z,32.27
2018-11-11T18:04:00.343Z,36.23
2018-11-11T18:06:32.384Z,33.10
2018-11-11T18:09:02.925Z,33.30
2018-11-11T18:11:33.446Z,31.97
2018-11-11T18:14:03.855Z,31.10
2018-11-11T18:16:35.128Z,34.97
2018-11-11T18:19:05.566Z,34.93
2018-11-11T18:21:36.406Z,31.40
2018-11-11T18:24:07.909Z,32.30
2018-11-11T18:26:38.042Z,30.90
2018-11-11T18:29:08.193Z,35.73
2018-11-11T18:31:38.358Z,34.37
2018-11-11T18:34:09.548Z,31.63
2018-11-11T18:36:39.970Z,34.73
2018-11-11T18:39:13.430Z,31.90
2018-11-11T18:41:44.271Z,30.80
2018-11-11T18:44:15.167Z,30.53
2018-11-11T18:46:46.239Z,28.07
2018-11-11T18:49:21.810Z,33.87
2018-11-11T18:51:52.893Z,30.13
2018-11-11T18:54:24.012Z,31.37
2018-11-11T18:56:55.965Z,27.53
2018-11-11T18:59:27.747Z,29.33
2018-11-11T19:01:59.035Z,29.90
2018-11-11T19:04:30.590Z,30.40
2018-11-11T19:07:02.093Z,30.07
2018-11-11T19:09:32.863Z,33.00
2018-11-11T19:14:53.659Z,31.10
2018-11-11T19:17:25.239Z,28.17
2018-11-11T19:19:56.235Z,29.73
2018-11-11T19:22:26.875Z,30.87
2018-11-11T19:24:57.640Z,30.03
2018-11-11T19:27:28.674Z,26.93
2018-11-11T19:29:59.060Z,29.03
2018-11-11T19:32:30.771Z,33.87
2018-11-11T19:35:01.905Z,31.60
2018-11-11T19:37:32.568Z,30.77
2018-11-11T19:40:02.695Z,29.00
2018-11-11T19:42:33.189Z,29.77
2018-11-11T19:45:03.592Z,28.00
2018-11-11T19:47:35.108Z,29.83
2018-11-11T19:50:06.396Z,27.10
2018-11-11T19:52:40.604Z,28.90
2018-11-11T19:55:11.996Z,29.03
2018-11-11T19:57:42.483Z,28.90
2018-11-11T20:00:18.752Z,31.27
2018-11-11T20:02:50.435Z,29.30
2018-11-11T20:05:21.839Z,28.63
2018-11-11T20:07:53.286Z,29.60
2018-11-11T20:10:25.233Z,28.87
2018-11-11T20:12:55.405Z,31.57
2018-11-11T20:15:28.955Z,31.43
2018-11-11T20:17:59.122Z,31.73
2018-11-11T20:20:33.729Z,32.70
2018-11-11T20:23:03.919Z,32.50
2018-11-11T20:25:34.278Z,30.67
2018-11-11T20:28:05.507Z,31.53
2018-11-11T20:30:37.264Z,32.00
2018-11-11T20:33:08.077Z,30.93
2018-11-11T20:35:38.271Z,27.77
2018-11-11T20:38:08.378Z,30.73
2018-11-11T20:40:40.077Z,30.20
2018-11-11T20:43:10.245Z,32.23
2018-11-11T20:45:40.344Z,28.87
2018-11-11T20:48:10.453Z,29.27
2018-11-11T20:50:40.585Z,35.07
2018-11-11T20:53:10.723Z,33.17
2018-11-11T20:55:40.861Z,32.47
2018-11-11T20:58:10.971Z,31.77
2018-11-11T21:00:41.079Z,31.57
2018-11-11T21:03:11.175Z,33.03
2018-11-11T21:05:41.308Z,37.47
2018-11-11T21:08:11.399Z,34.90
2018-11-11T21:10:41.539Z,36.37
2018-11-11T21:13:11.650Z,38.17
2018-11-11T21:15:41.744Z,34.43
2018-11-11T21:18:11.831Z,35.03
2018-11-11T21:20:41.963Z,36.87
2018-11-11T21:23:12.061Z,35.60
2018-11-11T21:25:42.135Z,34.17
2018-11-11T21:28:12.176Z,31.97
2018-11-11T21:30:42.225Z,33.63
2018-11-11T21:33:12.305Z,30.23
2018-11-11T21:35:42.424Z,39.47
2018-11-11T21:38:12.571Z,36.23
2018-11-11T21:40:42.650Z,31.97
2018-11-11T21:43:12.831Z,30.93
2018-11-11T21:45:42.909Z,31.23
2018-11-11T21:48:13.043Z,29.73
2018-11-11T21:50:43.115Z,32.67
2018-11-11T21:53:43.567Z,35.80
2018-11-11T21:56:13.673Z,31.27
2018-11-11T21:58:43.780Z,33.97
2018-11-11T22:01:14.466Z,35.00
2018-11-11T22:03:44.531Z,36.20
2018-11-11T22:06:14.555Z,37.97
2018-11-11T22:08:44.607Z,33.13
2018-11-11T22:11:14.686Z,36.30
2018-11-11T22:13:44.706Z,32.17
2018-11-11T22:16:14.682Z,32.43
2018-11-11T22:18:44.578Z,34.30
2018-11-11T22:21:14.564Z,34.27
2018-11-11T22:23:44.496Z,32.63
2018-11-11T22:26:14.391Z,31.10
2018-11-11T22:28:44.296Z,31.93
2018-11-11T22:31:13.627Z,31.37
2018-11-11T22:33:43.004Z,28.80
2018-11-11T22:36:12.379Z,32.57
2018-11-11T22:38:41.624Z,30.27
2018-11-11T22:41:10.943Z,29.23
2018-11-11T22:43:40.263Z,26.50
2018-11-11T22:46:09.562Z,31.17
2018-11-11T22:48:38.865Z,32.10
2018-11-11T22:51:08.171Z,29.37
2018-11-11T22:53:37.456Z,28.33
2018-11-11T22:56:06.814Z,29.47
2018-11-11T22:58:36.139Z,29.80
2018-11-11T23:01:10.836Z,29.97
2018-11-11T23:03:40.112Z,27.20
2018-11-11T23:06:09.431Z,26.93
2018-11-11T23:08:38.750Z,26.23
2018-11-11T23:11:08.063Z,28.40
2018-11-11T23:13:37.365Z,31.47
2018-11-11T23:16:06.777Z,29.30
2018-11-11T23:18:36.031Z,26.17
2018-11-11T23:21:05.390Z,27.50
2018-11-11T23:23:34.715Z,25.23
2018-11-11T23:26:03.996Z,28.13
2018-11-11T23:28:33.375Z,24.40
2018-11-11T23:31:02.575Z,27.83
2018-11-11T23:49:00.191Z,22.17
2018-11-11T23:51:29.488Z,28.03
2018-11-11T23:53:58.771Z,25.23
2018-11-11T23:56:28.039Z,25.43
2018-11-11T23:58:57.549Z,23.17
